Time;durP1;ratioP1;P1;durP2;ratioP2;P2;SDS_P1;SDS_P2;PMS_P1;PMS_P2;Temp;Humidity;BMP_temperature;BMP_pressure;BME280_temperature;BME280_humidity;BME280_pressure;Samples;Min_cycle;Max_cycle;Signal;HPM_P1;HPM_P2
2023/04/11 00:00:51;;;;;;;10.38;2.30;;;;;;;7.71;nan;98044.16;5039643;28;20040;-80
2023/04/11 00:03:37;;;;;;;8.18;2.70;;;;;;;7.37;nan;98048.53;5042495;28;20412;-78
2023/04/11 00:06:23;;;;;;;13.20;2.50;;;;;;;7.55;nan;98056.59;5042640;28;20033;-78
2023/04/11 00:09:10;;;;;;;8.25;2.28;;;;;;;7.66;nan;98042.16;5043762;28;20094;-79
2023/04/11 00:11:53;;;;;;;9.52;2.97;;;;;;;7.28;nan;98040.09;5042462;28;20043;-78
2023/04/11 00:14:44;;;;;;;9.80;2.30;;;;;;;7.35;nan;98068.81;5040697;28;20104;-78
2023/04/11 00:17:30;;;;;;;7.53;2.65;;;;;;;7.23;nan;98048.50;5046334;28;20044;-78
2023/04/11 00:20:14;;;;;;;10.27;2.33;;;;;;;7.56;nan;98068.66;5042026;28;20398;-78
2023/04/11 00:22:58;;;;;;;11.20;3.15;;;;;;;7.52;nan;98053.56;5043077;28;20182;-78
2023/04/11 00:25:42;;;;;;;6.72;2.33;;;;;;;7.72;nan;98051.78;5035469;28;20068;-78
2023/04/11 00:28:26;;;;;;;7.22;2.22;;;;;;;7.26;nan;98066.38;5043861;28;20098;-78
2023/04/11 00:31:11;;;;;;;6.47;2.25;;;;;;;7.45;nan;98056.19;5042386;28;20183;-78
2023/04/11 00:33:55;;;;;;;11.63;2.85;;;;;;;7.23;nan;98061.56;5040164;28;20051;-78
2023/04/11 00:36:40;;;;;;;10.60;2.95;;;;;;;7.49;nan;98057.41;5040663;28;20049;-78
2023/04/11 00:39:25;;;;;;;7.00;3.15;;;;;;;7.54;nan;98075.06;5042763;28;20043;-77
2023/04/11 00:42:10;;;;;;;9.50;2.58;;;;;;;7.60;nan;98073.47;5044434;28;20091;-77
2023/04/11 00:44:54;;;;;;;8.90;2.63;;;;;;;7.46;nan;98070.84;5037644;28;20044;-78
2023/04/11 00:47:39;;;;;;;13.30;3.13;;;;;;;7.52;nan;98077.09;5036580;28;20107;-78
2023/04/11 00:50:23;;;;;;;16.63;2.75;;;;;;;7.55;nan;98084.50;5040620;28;20521;-78
2023/04/11 00:53:10;;;;;;;10.70;2.35;;;;;;;7.37;nan;98075.47;5038711;28;20063;-78
2023/04/11 00:55:54;;;;;;;13.52;2.95;;;;;;;7.35;nan;98077.44;5037329;28;20094;-79
2023/04/11 00:58:40;;;;;;;10.68;3.10;;;;;;;7.32;nan;98077.84;5041643;28;20553;-79
2023/04/11 01:01:24;;;;;;;20.65;3.10;;;;;;;7.18;nan;98090.06;5037685;28;20043;-78
2023/04/11 01:04:08;;;;;;;10.50;2.70;;;;;;;7.24;nan;98070.19;5041164;28;20056;-77
2023/04/11 01:06:57;;;;;;;9.95;2.70;;;;;;;7.22;nan;98083.44;5040466;28;20494;-77
2023/04/11 01:09:42;;;;;;;9.02;2.08;;;;;;;7.22;nan;98087.88;5039553;28;20426;-76
2023/04/11 01:12:27;;;;;;;11.30;3.10;;;;;;;7.05;nan;98076.94;5035812;28;20095;-77
2023/04/11 01:15:11;;;;;;;9.25;3.25;;;;;;;7.02;nan;98075.56;5040376;28;20060;-77
2023/04/11 01:17:56;;;;;;;12.98;2.42;;;;;;;7.49;nan;98078.31;5041130;28;20434;-77
2023/04/11 01:20:41;;;;;;;15.15;2.58;;;;;;;7.32;nan;98082.28;5040890;28;20063;-77
2023/04/11 01:23:26;;;;;;;5.90;2.72;;;;;;;7.22;nan;98077.44;5043264;28;20051;-77
2023/04/11 01:26:11;;;;;;;13.23;3.70;;;;;;;7.14;nan;98101.91;5040405;28;20478;-78
2023/04/11 01:28:56;;;;;;;11.95;3.30;;;;;;;6.76;nan;98089.28;5043666;28;20048;-78
2023/04/11 01:31:40;;;;;;;12.32;3.08;;;;;;;6.91;nan;98089.16;5043300;28;20091;-78
2023/04/11 01:34:27;;;;;;;7.90;2.50;;;;;;;7.09;nan;98101.69;5043176;28;20084;-78
2023/04/11 01:37:11;;;;;;;15.82;3.03;;;;;;;7.07;nan;98093.22;5042231;28;20044;-78
2023/04/11 01:39:55;;;;;;;12.52;2.88;;;;;;;7.21;nan;98102.72;5041575;28;20099;-78
2023/04/11 01:42:39;;;;;;;12.15;2.28;;;;;;;7.12;nan;98098.69;5038931;28;20078;-79
2023/04/11 01:45:25;;;;;;;10.25;2.58;;;;;;;7.07;nan;98090.59;5036933;28;20518;-78
2023/04/11 01:48:09;;;;;;;12.40;2.72;;;;;;;7.02;nan;98098.22;5043064;28;20368;-78
2023/04/11 01:50:55;;;;;;;13.93;4.10;;;;;;;7.13;nan;98110.72;5034153;28;20044;-78
2023/04/11 01:53:39;;;;;;;6.80;3.30;;;;;;;7.31;nan;98091.09;5043295;28;20122;-78
2023/04/11 01:56:23;;;;;;;14.20;4.05;;;;;;;7.13;nan;98088.03;5040530;28;20056;-77
2023/04/11 01:59:07;;;;;;;9.02;3.47;;;;;;;7.08;nan;98081.81;5038572;28;20098;-77
2023/04/11 02:01:51;;;;;;;9.48;2.58;;;;;;;7.10;nan;98090.25;5039832;28;20052;-77
2023/04/11 02:04:35;;;;;;;9.63;3.13;;;;;;;6.94;nan;98060.88;5041109;28;20079;-78
2023/04/11 02:07:19;;;;;;;12.35;3.05;;;;;;;7.06;nan;98096.81;5032797;28;20036;-78
2023/04/11 02:10:04;;;;;;;8.45;2.40;;;;;;;6.81;nan;98092.09;5038506;28;20048;-78
2023/04/11 02:12:48;;;;;;;10.68;2.20;;;;;;;6.80;nan;98103.53;5037540;28;20044;-77
2023/04/11 02:15:32;;;;;;;10.93;2.83;;;;;;;6.92;nan;98138.53;5041936;28;20053;-77
2023/04/11 02:18:16;;;;;;;6.68;2.20;;;;;;;6.98;nan;98093.41;5042994;28;20044;-78
2023/04/11 02:21:00;;;;;;;12.20;2.55;;;;;;;7.02;nan;98090.38;5038178;28;20056;-78
2023/04/11 02:23:44;;;;;;;9.15;2.03;;;;;;;7.13;nan;98100.28;5044579;28;20141;-78
2023/04/11 02:26:28;;;;;;;11.50;2.10;;;;;;;6.88;nan;98115.63;5043322;28;20036;-80
2023/04/11 02:29:12;;;;;;;7.68;2.30;;;;;;;7.09;nan;98088.63;5044906;28;20146;-79
2023/04/11 02:31:56;;;;;;;11.82;2.53;;;;;;;7.12;nan;98109.91;5044681;28;20045;-79
2023/04/11 02:34:41;;;;;;;11.05;2.30;;;;;;;6.98;nan;98106.44;5046099;28;20079;-79
2023/04/11 02:37:26;;;;;;;9.02;2.40;;;;;;;6.90;nan;98090.97;5042969;28;20041;-79
2023/04/11 02:40:10;;;;;;;7.65;2.58;;;;;;;6.87;nan;98101.75;5047551;28;20048;-78
2023/04/11 02:42:55;;;;;;;10.60;2.30;;;;;;;6.77;nan;98091.69;5044535;28;20052;-79
2023/04/11 02:45:40;;;;;;;9.35;2.22;;;;;;;6.83;nan;98097.94;5043822;28;20127;-78
2023/04/11 02:48:24;;;;;;;6.10;2.17;;;;;;;6.72;nan;98109.72;5044473;28;20071;-79
2023/04/11 02:51:08;;;;;;;8.75;2.63;;;;;;;6.90;nan;98142.31;5043784;28;20048;-78
2023/04/11 02:53:52;;;;;;;12.35;2.35;;;;;;;7.12;nan;98104.69;5042558;28;20507;-77
2023/04/11 02:56:37;;;;;;;16.10;2.47;;;;;;;7.22;nan;98116.59;5041014;28;20040;-77
2023/04/11 02:59:21;;;;;;;11.32;2.15;;;;;;;7.29;nan;98096.50;5041417;28;20111;-78
2023/04/11 03:02:05;;;;;;;9.43;2.28;;;;;;;7.14;nan;98107.13;5046503;28;20140;-78
2023/04/11 03:04:50;;;;;;;12.45;2.25;;;;;;;6.98;nan;98108.25;5038627;28;20110;-78
2023/04/11 03:07:37;;;;;;;8.50;2.53;;;;;;;7.04;nan;98117.09;5046197;28;20486;-78
2023/04/11 03:10:21;;;;;;;13.63;2.60;;;;;;;6.76;nan;98110.16;5041870;28;20068;-78
2023/04/11 03:13:05;;;;;;;10.70;2.22;;;;;;;6.84;nan;98097.75;5050328;28;20091;-78
2023/04/11 03:15:49;;;;;;;6.57;2.10;;;;;;;6.71;nan;98108.09;5042033;28;20045;-77
2023/04/11 03:18:33;;;;;;;11.18;2.40;;;;;;;6.93;nan;98108.84;5042792;28;20048;-77
2023/04/11 03:21:17;;;;;;;8.15;2.17;;;;;;;6.75;nan;98126.78;5041518;28;20569;-78
2023/04/11 03:24:01;;;;;;;7.57;2.03;;;;;;;6.62;nan;98117.88;5039326;28;20092;-78
2023/04/11 03:26:45;;;;;;;9.13;2.45;;;;;;;6.88;nan;98129.47;5037537;28;20437;-78
2023/04/11 03:29:31;;;;;;;12.77;2.25;;;;;;;6.70;nan;98148.22;5041172;28;20053;-79
2023/04/11 03:32:15;;;;;;;9.50;2.50;;;;;;;6.71;nan;98127.19;5044015;28;20048;-78
2023/04/11 03:34:59;;;;;;;7.55;2.47;;;;;;;6.78;nan;98139.44;5043285;28;20128;-78
2023/04/11 03:37:43;;;;;;;17.17;2.75;;;;;;;6.68;nan;98140.63;5045188;28;20104;-77
2023/04/11 03:40:27;;;;;;;11.18;2.30;;;;;;;6.71;nan;98153.25;5040785;28;20045;-79
2023/04/11 03:43:11;;;;;;;10.35;2.67;;;;;;;6.80;nan;98166.97;5040030;28;20044;-79
2023/04/11 03:45:55;;;;;;;11.27;3.05;;;;;;;6.66;nan;98153.00;5041859;28;20121;-78
2023/04/11 03:48:39;;;;;;;15.82;3.50;;;;;;;6.64;nan;98224.63;5040939;28;20040;-79
2023/04/11 03:51:25;;;;;;;5.97;2.25;;;;;;;6.70;nan;98169.09;5036468;28;20048;-78
2023/04/11 03:54:09;;;;;;;8.48;2.05;;;;;;;6.70;nan;98158.66;5040833;28;20091;-78
2023/04/11 03:56:53;;;;;;;13.57;2.70;;;;;;;6.78;nan;98170.75;5038819;28;20545;-79
2023/04/11 03:59:37;;;;;;;13.45;2.13;;;;;;;6.72;nan;98167.09;5041972;28;20510;-78
2023/04/11 04:02:21;;;;;;;7.38;2.03;;;;;;;6.77;nan;98167.31;5043426;28;20084;-78
2023/04/11 04:05:05;;;;;;;10.15;2.30;;;;;;;6.84;nan;98176.00;5043725;28;20053;-77
2023/04/11 04:07:49;;;;;;;10.57;2.47;;;;;;;6.76;nan;98193.63;5040101;28;20049;-77
2023/04/11 04:10:33;;;;;;;8.50;2.08;;;;;;;6.89;nan;98187.66;5041087;28;20075;-78
2023/04/11 04:13:17;;;;;;;9.68;2.92;;;;;;;6.68;nan;98191.94;5038156;28;20118;-79
2023/04/11 04:16:02;;;;;;;10.27;2.03;;;;;;;6.76;nan;98199.63;5036788;28;20099;-78
2023/04/11 04:18:47;;;;;;;12.90;2.85;;;;;;;6.90;nan;98205.75;5042584;28;20501;-79
2023/04/11 04:21:31;;;;;;;10.50;2.75;;;;;;;6.99;nan;98209.03;5038055;28;20051;-79
2023/04/11 04:24:15;;;;;;;11.80;2.38;;;;;;;6.80;nan;98205.28;5038696;28;20091;-78
2023/04/11 04:26:59;;;;;;;6.97;2.25;;;;;;;6.71;nan;98233.28;5040983;28;20048;-78
2023/04/11 04:29:46;;;;;;;12.55;2.45;;;;;;;6.99;nan;98215.03;5034500;28;20047;-78
2023/04/11 04:32:31;;;;;;;12.45;2.20;;;;;;;7.02;nan;98213.03;5039151;28;20566;-78
2023/04/11 04:35:15;;;;;;;12.70;2.50;;;;;;;7.00;nan;98219.25;5033691;28;20514;-78
2023/04/11 04:38:05;;;;;;;7.35;2.08;;;;;;;6.93;nan;98222.81;5037010;28;20051;-80
2023/04/11 04:40:49;;;;;;;9.07;2.00;;;;;;;6.88;nan;98214.75;5041096;28;20129;-77
2023/04/11 04:43:34;;;;;;;12.98;2.90;;;;;;;6.79;nan;98224.53;5039785;28;20099;-79
2023/04/11 04:46:18;;;;;;;13.93;2.55;;;;;;;6.77;nan;98237.75;5042060;28;20125;-78
2023/04/11 04:49:04;;;;;;;10.30;2.38;;;;;;;6.79;nan;98221.91;5041185;28;20041;-77
2023/04/11 04:51:48;;;;;;;9.93;2.80;;;;;;;6.84;nan;98222.16;5034799;28;20386;-78
2023/04/11 04:54:32;;;;;;;14.40;3.83;;;;;;;6.78;nan;98225.53;5038307;28;20040;-78
2023/04/11 04:57:15;;;;;;;14.02;2.97;;;;;;;6.67;nan;98227.63;5034169;28;20048;-78
2023/04/11 04:59:59;;;;;;;18.50;2.42;;;;;;;6.61;nan;98238.03;5040058;28;20043;-78
2023/04/11 05:02:43;;;;;;;16.73;2.45;;;;;;;6.63;nan;98236.06;5037988;28;20064;-78
2023/04/11 05:05:28;;;;;;;12.35;2.75;;;;;;;6.53;nan;98231.16;5039454;28;20106;-77
2023/04/11 05:08:12;;;;;;;8.80;2.70;;;;;;;6.53;nan;98231.94;5040670;28;20047;-78
2023/04/11 05:10:56;;;;;;;16.30;3.15;;;;;;;6.55;nan;98239.59;5044767;28;20514;-77
2023/04/11 05:13:40;;;;;;;13.85;3.00;;;;;;;6.61;nan;98251.88;5038687;28;20099;-78
2023/04/11 05:16:24;;;;;;;13.07;2.78;;;;;;;6.58;nan;98244.44;5040321;28;20099;-78
2023/04/11 05:19:09;;;;;;;12.85;2.80;;;;;;;6.51;nan;98244.38;5039362;28;20179;-77
2023/04/11 05:21:53;;;;;;;10.48;3.13;;;;;;;6.71;nan;98260.19;5043339;28;20211;-78
2023/04/11 05:24:37;;;;;;;11.02;2.65;;;;;;;6.60;nan;98268.50;5038331;28;20173;-79
2023/04/11 05:27:21;;;;;;;13.05;2.30;;;;;;;6.65;nan;98270.56;5043258;28;20036;-79
2023/04/11 05:30:06;;;;;;;11.73;2.55;;;;;;;6.56;nan;98282.94;5038693;28;20086;-79
2023/04/11 05:32:50;;;;;;;11.93;2.80;;;;;;;6.74;nan;98273.84;5036307;28;20612;-79
2023/04/11 05:35:34;;;;;;;13.60;2.95;;;;;;;6.90;nan;98276.19;5040674;28;20076;-79
2023/04/11 05:38:19;;;;;;;16.55;2.72;;;;;;;6.63;nan;98272.56;5038770;28;20049;-79
2023/04/11 05:41:03;;;;;;;11.13;3.65;;;;;;;6.57;nan;98263.69;5037624;28;20076;-79
2023/04/11 05:43:48;;;;;;;11.85;2.80;;;;;;;6.68;nan;98273.63;5040484;28;20140;-79
2023/04/11 05:46:34;;;;;;;13.45;2.67;;;;;;;6.78;nan;98269.88;5038001;28;20052;-79
2023/04/11 05:49:18;;;;;;;13.40;2.92;;;;;;;6.75;nan;98270.25;5037198;28;20045;-79
2023/04/11 05:52:02;;;;;;;9.73;2.70;;;;;;;6.78;nan;98285.50;5043796;28;20049;-80
2023/04/11 05:54:46;;;;;;;13.75;3.65;;;;;;;6.68;nan;98280.63;5042821;28;20537;-79
2023/04/11 05:57:30;;;;;;;16.67;2.92;;;;;;;6.88;nan;98278.19;5048737;28;20111;-80
2023/04/11 06:00:15;;;;;;;16.52;2.53;;;;;;;6.86;nan;98277.53;5042143;28;20107;-79
2023/04/11 06:03:00;;;;;;;19.15;3.53;;;;;;;6.92;nan;98284.63;5041440;28;20039;-80
2023/04/11 06:05:44;;;;;;;16.10;2.70;;;;;;;6.80;nan;98286.13;5045763;28;20163;-79
2023/04/11 06:08:28;;;;;;;8.38;2.45;;;;;;;6.74;nan;98289.50;5044390;28;20048;-80
2023/04/11 06:11:12;;;;;;;14.70;3.50;;;;;;;6.95;nan;98302.50;5041719;28;20371;-79
2023/04/11 06:13:56;;;;;;;16.52;3.13;;;;;;;7.12;nan;98303.03;5041804;28;20095;-79
2023/04/11 06:16:41;;;;;;;11.80;2.47;;;;;;;7.11;nan;98290.19;5043822;28;20255;-79
2023/04/11 06:19:25;;;;;;;13.73;2.70;;;;;;;7.35;nan;98306.41;5039988;28;20100;-79
2023/04/11 06:22:09;;;;;;;9.63;2.78;;;;;;;7.27;nan;98308.16;5040847;28;20079;-79
2023/04/11 06:24:53;;;;;;;10.02;3.22;;;;;;;7.42;nan;98308.06;5042219;28;20059;-77
2023/04/11 06:27:37;;;;;;;10.52;2.45;;;;;;;7.32;nan;98312.00;5040482;28;20419;-76
2023/04/11 06:30:21;;;;;;;25.88;4.75;;;;;;;7.46;nan;98318.91;5044432;28;20051;-77
2023/04/11 06:33:05;;;;;;;15.40;3.25;;;;;;;7.23;nan;98308.72;5044731;28;20126;-77
2023/04/11 06:35:49;;;;;;;10.13;2.60;;;;;;;7.32;nan;98302.34;5040425;28;20049;-77
2023/04/11 06:38:35;;;;;;;10.30;2.30;;;;;;;7.54;nan;98299.66;5045937;28;20408;-76
2023/04/11 06:41:19;;;;;;;17.00;3.38;;;;;;;7.56;nan;98293.25;5041130;28;20103;-78
2023/04/11 06:44:03;;;;;;;10.93;2.65;;;;;;;7.75;nan;98285.72;5043455;28;20171;-78
2023/04/11 06:46:47;;;;;;;13.90;2.40;;;;;;;7.65;nan;98303.53;5044273;28;20557;-79
2023/04/11 06:49:31;;;;;;;16.85;3.60;;;;;;;7.79;nan;98296.59;5046050;28;20043;-77
2023/04/11 06:52:16;;;;;;;11.13;2.72;;;;;;;7.66;nan;98316.41;5042290;28;20121;-76
2023/04/11 06:55:00;;;;;;;11.00;2.78;;;;;;;7.77;nan;98312.44;5036951;28;20063;-77
2023/04/11 06:57:44;;;;;;;17.23;2.92;;;;;;;7.81;nan;98305.81;5038232;28;20442;-75
2023/04/11 07:00:28;;;;;;;17.70;3.63;;;;;;;7.72;nan;98313.00;5038317;28;20419;-76
2023/04/11 07:03:12;;;;;;;15.82;3.50;;;;;;;7.82;nan;98310.03;5041249;28;20044;-76
2023/04/11 07:05:56;;;;;;;12.20;2.80;;;;;;;8.31;nan;98314.44;5036185;28;20102;-76
2023/04/11 07:08:40;;;;;;;13.80;2.92;;;;;;;8.47;nan;98308.03;5042250;28;20063;-76
2023/04/11 07:11:25;;;;;;;16.13;3.40;;;;;;;8.27;nan;98329.72;5039054;28;20067;-76
2023/04/11 07:14:09;;;;;;;25.77;3.80;;;;;;;8.13;nan;98305.31;5047310;28;20048;-75
2023/04/11 07:16:53;;;;;;;12.35;2.97;;;;;;;8.31;nan;98302.19;5040123;28;20139;-75
2023/04/11 07:19:37;;;;;;;21.75;3.30;;;;;;;8.51;nan;98299.59;5040948;28;20139;-78
2023/04/11 07:22:22;;;;;;;10.60;2.53;;;;;;;8.43;nan;98315.47;5043504;28;20501;-76
2023/04/11 07:25:07;;;;;;;9.02;2.60;;;;;;;8.34;nan;98293.94;5040781;28;20121;-77
2023/04/11 07:27:51;;;;;;;16.20;3.00;;;;;;;8.31;nan;98299.56;5040367;28;20083;-77
2023/04/11 07:30:36;;;;;;;12.48;3.22;;;;;;;8.28;nan;98289.50;5045686;28;20179;-78
2023/04/11 07:33:20;;;;;;;12.73;2.55;;;;;;;8.19;nan;98301.94;5038207;28;20036;-76
2023/04/11 07:36:05;;;;;;;13.05;2.95;;;;;;;8.27;nan;98300.97;5043531;28;20513;-76
2023/04/11 07:38:51;;;;;;;17.83;3.03;;;;;;;8.59;nan;98303.84;5041986;28;20086;-75
2023/04/11 07:41:36;;;;;;;14.50;3.58;;;;;;;8.28;nan;98289.50;5042303;28;20036;-77
2023/04/11 07:44:20;;;;;;;14.75;2.95;;;;;;;8.40;nan;98292.34;5037358;28;20099;-76
2023/04/11 07:47:04;;;;;;;15.18;3.47;;;;;;;8.58;nan;98299.63;5042508;28;20418;-76
2023/04/11 07:49:49;;;;;;;20.30;3.65;;;;;;;8.27;nan;98299.13;5045653;28;20090;-76
2023/04/11 07:52:34;;;;;;;13.85;2.90;;;;;;;8.50;nan;98289.38;5048735;28;20048;-77
2023/04/11 07:55:18;;;;;;;8.20;2.60;;;;;;;8.55;nan;98294.78;5039004;28;20060;-76
2023/04/11 07:58:02;;;;;;;11.13;2.88;;;;;;;8.68;nan;98297.44;5042676;28;20102;-76
2023/04/11 08:00:47;;;;;;;12.93;3.40;;;;;;;8.60;nan;98279.28;5039725;28;20115;-78
2023/04/11 08:03:31;;;;;;;11.95;2.78;;;;;;;8.74;nan;98289.78;5044756;28;20048;-77
2023/04/11 08:06:15;;;;;;;12.70;2.75;;;;;;;8.54;nan;98262.59;5039716;28;20032;-76
2023/04/11 08:08:59;;;;;;;20.38;3.40;;;;;;;8.47;nan;98300.19;5044388;28;20052;-78
2023/04/11 08:11:43;;;;;;;14.38;3.20;;;;;;;8.77;nan;98287.56;5043978;28;20518;-77
2023/04/11 08:14:27;;;;;;;15.00;2.95;;;;;;;8.76;nan;98291.19;5043138;28;20056;-77
2023/04/11 08:17:13;;;;;;;19.38;2.88;;;;;;;9.02;nan;98273.03;5037746;28;20072;-77
2023/04/11 08:19:57;;;;;;;13.07;2.97;;;;;;;9.34;nan;98267.97;5037911;28;20043;-77
2023/04/11 08:22:45;;;;;;;15.07;2.92;;;;;;;9.41;nan;98266.13;5046105;28;20087;-79
2023/04/11 08:25:31;;;;;;;11.02;2.67;;;;;;;9.14;nan;98266.19;5035885;28;20040;-79
2023/04/11 08:28:15;;;;;;;9.23;2.53;;;;;;;9.39;nan;98268.16;5029785;28;20087;-79
2023/04/11 08:31:01;;;;;;;21.33;3.45;;;;;;;9.39;nan;98273.38;5027649;28;20564;-79
2023/04/11 08:33:45;;;;;;;12.70;2.80;;;;;;;9.43;nan;98271.97;5031344;28;20128;-79
2023/04/11 08:36:30;;;;;;;12.13;3.00;;;;;;;9.22;nan;98273.03;5035902;28;20092;-80
2023/04/11 08:39:14;;;;;;;10.95;2.67;;;;;;;9.77;nan;98254.31;5039579;28;20052;-78
2023/04/11 08:41:59;;;;;;;9.52;2.90;;;;;;;9.33;nan;98251.44;5040636;28;20094;-81
2023/04/11 08:44:48;;;;;;;14.38;3.47;;;;;;;9.48;nan;98269.53;5035426;28;20052;-81
2023/04/11 08:47:33;;;;;;;13.63;3.25;;;;;;;9.70;nan;98256.16;5044064;28;20613;-82
2023/04/11 08:50:17;;;;;;;12.77;2.95;;;;;;;9.43;nan;98264.91;5042668;28;20111;-82
2023/04/11 08:53:02;;;;;;;9.35;3.22;;;;;;;9.63;nan;98268.47;5038032;28;20040;-82
2023/04/11 08:55:47;;;;;;;15.60;2.80;;;;;;;9.84;nan;98265.59;5038460;28;20172;-83
2023/04/11 08:58:31;;;;;;;6.47;2.72;;;;;;;9.76;nan;98257.94;5042135;28;20048;-81
2023/04/11 09:01:26;;;;;;;11.18;2.53;;;;;;;9.83;nan;98258.75;5042610;28;20055;-82
2023/04/11 09:04:10;;;;;;;;;;;;;;;10.20;nan;98258.13;5039371;28;20139;-82
2023/04/11 09:06:57;;;;;;;9.45;2.83;;;;;;;9.93;nan;98267.97;5043886;28;19935;-81
2023/04/11 09:09:42;;;;;;;19.33;3.20;;;;;;;10.30;nan;98268.16;5040784;28;20091;-82
2023/04/11 09:12:29;;;;;;;10.60;3.13;;;;;;;10.19;nan;98260.94;5042194;28;20048;-81
2023/04/11 09:15:31;;;;;;;8.10;2.60;;;;;;;10.32;nan;98266.13;5040011;28;20072;-82
2023/04/11 09:18:39;;;;;;;7.95;2.70;;;;;;;10.29;nan;98264.72;5038183;28;20109;-81
2023/04/11 09:21:23;;;;;;;17.70;2.97;;;;;;;10.37;nan;98268.13;5041514;28;20047;-80
2023/04/11 09:24:16;;;;;;;11.75;2.30;;;;;;;10.27;nan;98255.47;5035697;28;20060;-81
2023/04/11 09:27:12;;;;;;;11.73;2.53;;;;;;;10.47;nan;98270.31;5035097;28;20395;-78
2023/04/11 09:29:56;;;;;;;11.85;2.63;;;;;;;10.47;nan;98265.84;5036315;28;20102;-77
2023/04/11 09:32:40;;;;;;;9.23;2.60;;;;;;;10.52;nan;98268.66;5043901;28;20092;-79
2023/04/11 09:35:27;;;;;;;11.90;2.75;;;;;;;10.40;nan;98276.38;5032007;28;20099;-77
2023/04/11 09:38:11;;;;;;;8.43;2.38;;;;;;;10.59;nan;98271.22;5032158;28;20056;-77
2023/04/11 09:40:56;;;;;;;8.63;2.83;;;;;;;11.05;nan;98263.97;5033741;28;20559;-78
2023/04/11 09:43:56;;;;;;;7.82;2.78;;;;;;;11.37;nan;98268.28;5033069;28;20088;-78
2023/04/11 09:46:59;;;;;;;11.15;2.47;;;;;;;11.36;nan;98274.56;5033505;28;21696;-78
2023/04/11 09:49:43;;;;;;;13.02;2.65;;;;;;;11.26;nan;98267.19;5037210;28;20514;-78
2023/04/11 09:52:30;;;;;;;9.63;2.13;;;;;;;11.21;nan;98290.69;5029650;28;20319;-76
2023/04/11 09:55:17;;;;;;;8.05;2.38;;;;;;;11.27;nan;98276.69;5036657;28;20060;-78
2023/04/11 09:58:04;;;;;;;10.93;2.45;;;;;;;11.66;nan;98279.09;5038254;28;20044;-78
2023/04/11 10:00:49;;;;;;;7.63;2.65;;;;;;;11.15;nan;98279.22;5038766;28;20362;-78
2023/04/11 10:03:38;;;;;;;3.88;2.17;;;;;;;11.53;nan;98285.31;5035467;28;20513;-77
2023/04/11 10:06:39;;;;;;;9.52;2.47;;;;;;;11.44;nan;98276.94;5041272;28;20121;-78
2023/04/11 10:09:24;;;;;;;7.88;2.20;;;;;;;11.38;nan;98278.59;5041178;28;20076;-78
2023/04/11 10:12:08;;;;;;;7.63;2.45;;;;;;;11.50;nan;98285.78;5031664;28;20095;-77
2023/04/11 10:14:55;;;;;;;10.38;2.90;;;;;;;11.93;nan;98269.06;5039773;28;20206;-77
2023/04/11 10:17:39;;;;;;;5.00;1.77;;;;;;;12.12;nan;98269.84;5033603;28;20048;-78
2023/04/11 10:20:49;;;;;;;9.05;2.67;;;;;;;12.53;nan;98256.09;5038354;28;20411;-78
2023/04/11 10:24:20;;;;;;;6.47;2.40;;;;;;;12.36;nan;98256.75;5038463;28;20075;-77
2023/04/11 10:27:06;;;;;;;7.15;1.90;;;;;;;12.13;nan;98250.41;5035705;28;20426;-78
2023/04/11 10:29:51;;;;;;;8.15;2.53;;;;;;;11.97;nan;98254.44;5036630;28;20127;-78
2023/04/11 10:32:35;;;;;;;7.43;2.10;;;;;;;12.16;nan;98251.81;5039633;28;20092;-78
2023/04/11 10:35:21;;;;;;;6.22;2.40;;;;;;;12.03;nan;98252.78;5040047;28;20125;-77
2023/04/11 10:38:40;;;;;;;6.10;2.13;;;;;;;12.05;nan;98249.91;5045918;28;20506;-77
2023/04/11 10:41:33;;;;;;;5.85;2.22;;;;;;;12.46;nan;98235.16;5042387;28;20399;-78
2023/04/11 10:44:20;;;;;;;2.40;1.98;;;;;;;12.42;nan;98212.94;5040868;28;20048;-78
2023/04/11 10:47:15;;;;;;;8.80;2.95;;;;;;;12.32;nan;98225.88;5041154;28;21456;-77
2023/04/11 10:49:59;;;;;;;7.40;1.95;;;;;;;12.13;nan;98221.47;5044562;28;20171;-78
2023/04/11 10:52:43;;;;;;;6.68;2.17;;;;;;;12.75;nan;98226.59;5045545;28;20056;-78
2023/04/11 10:55:29;;;;;;;9.30;2.40;;;;;;;12.62;nan;98215.28;5040486;28;20104;-78
2023/04/11 10:58:21;;;;;;;7.75;2.15;;;;;;;12.92;nan;98206.44;5041688;28;20133;-78
2023/04/11 11:01:13;;;;;;;8.60;2.45;;;;;;;12.75;nan;98206.34;5046045;28;20044;-78
2023/04/11 11:03:58;;;;;;;9.32;3.20;;;;;;;12.83;nan;98197.31;5042648;28;20080;-77
2023/04/11 11:06:42;;;;;;;11.52;2.83;;;;;;;12.97;nan;98209.22;5039934;28;20052;-78
2023/04/11 11:09:29;;;;;;;10.40;2.47;;;;;;;13.13;nan;98202.41;5040415;28;20048;-78
2023/04/11 11:12:15;;;;;;;9.07;2.70;;;;;;;13.07;nan;98203.34;5040318;28;20072;-78
2023/04/11 11:15:11;;;;;;;8.00;2.38;;;;;;;12.97;nan;98203.13;5039674;28;20139;-78
2023/04/11 11:17:55;;;;;;;7.85;2.33;;;;;;;13.32;nan;98204.09;5042130;28;20127;-78
2023/04/11 11:20:39;;;;;;;8.25;2.75;;;;;;;13.73;nan;98193.56;5043075;28;20458;-78
2023/04/11 11:23:24;;;;;;;11.07;2.75;;;;;;;14.19;nan;98188.31;5039912;28;20119;-78
2023/04/11 11:26:08;;;;;;;6.20;2.67;;;;;;;14.56;nan;98185.19;5043408;28;20532;-78
2023/04/11 11:28:53;;;;;;;6.10;2.88;;;;;;;14.50;nan;98178.19;5040616;28;20125;-78
2023/04/11 11:31:44;;;;;;;7.88;3.10;;;;;;;14.83;nan;98173.94;5041428;28;20112;-78
2023/04/11 11:34:33;;;;;;;9.30;2.85;;;;;;;15.03;nan;98172.63;5040236;28;20044;-78
2023/04/11 11:37:17;;;;;;;7.70;2.42;;;;;;;15.47;nan;98169.97;5043860;28;20090;-78
2023/04/11 11:40:08;;;;;;;8.50;2.75;;;;;;;15.98;nan;98166.25;5041989;28;20052;-78
2023/04/11 11:42:52;;;;;;;9.38;2.60;;;;;;;15.98;nan;98159.09;5041191;28;20410;-78
2023/04/11 11:45:36;;;;;;;12.88;2.75;;;;;;;16.80;nan;98152.81;5039793;28;20094;-77
2023/04/11 11:48:22;;;;;;;7.07;2.60;;;;;;;17.12;nan;98167.03;5039704;28;20040;-78
2023/04/11 11:51:06;;;;;;;9.40;2.67;;;;;;;16.84;nan;98158.38;5041497;28;20400;-78
2023/04/11 11:54:04;;;;;;;10.18;3.08;;;;;;;17.24;nan;98156.19;5040626;28;20470;-78
2023/04/11 11:56:53;;;;;;;9.02;2.63;;;;;;;17.34;nan;98147.47;5041123;28;20056;-78
2023/04/11 11:59:37;;;;;;;8.60;3.13;;;;;;;17.04;nan;98143.63;5043282;28;20441;-78
2023/04/11 12:02:26;;;;;;;13.02;3.53;;;;;;;17.03;nan;98140.22;5038312;28;20087;-78
2023/04/11 12:05:10;;;;;;;7.60;3.22;;;;;;;17.18;nan;98128.03;5040638;28;20053;-78
2023/04/11 12:07:57;;;;;;;7.78;3.22;;;;;;;17.41;nan;98124.13;5039412;28;20047;-78
2023/04/11 12:10:44;;;;;;;9.18;2.72;;;;;;;17.01;nan;98112.34;5040022;28;20407;-78
2023/04/11 12:13:29;;;;;;;11.27;2.95;;;;;;;17.17;nan;98108.69;5045340;28;20048;-78
2023/04/11 12:16:14;;;;;;;8.15;3.20;;;;;;;17.45;nan;98100.53;5043204;28;20060;-77
2023/04/11 12:18:59;;;;;;;6.38;3.13;;;;;;;17.38;nan;98100.78;5045017;28;20066;-78
2023/04/11 12:21:43;;;;;;;6.20;3.05;;;;;;;17.69;nan;98101.63;5043357;28;20036;-77
2023/04/11 12:24:27;;;;;;;8.80;2.58;;;;;;;17.70;nan;98091.81;5042411;28;20040;-78
2023/04/11 12:27:11;;;;;;;10.77;3.50;;;;;;;18.04;nan;98091.31;5041830;28;20095;-78
2023/04/11 12:29:55;;;;;;;5.95;2.80;;;;;;;18.08;nan;98089.72;5041694;28;20039;-78
2023/04/11 12:32:40;;;;;;;7.65;3.20;;;;;;;18.25;nan;98088.63;5042587;28;20505;-78
2023/04/11 12:35:24;;;;;;;8.45;3.20;;;;;;;18.27;nan;98089.94;5042112;28;20051;-78
2023/04/11 12:38:08;;;;;;;11.15;3.53;;;;;;;18.56;nan;98076.06;5042951;28;20053;-78
2023/04/11 12:40:52;;;;;;;9.60;3.10;;;;;;;18.77;nan;98062.72;5033242;28;20060;-78
2023/04/11 12:43:36;;;;;;;5.13;3.00;;;;;;;18.68;nan;98067.78;5036059;28;20450;-78
2023/04/11 12:46:20;;;;;;;10.25;3.72;;;;;;;18.25;nan;98059.41;5039986;28;20036;-78
2023/04/11 12:49:04;;;;;;;8.30;3.33;;;;;;;18.29;nan;98039.22;5035972;28;20043;-78
2023/04/11 12:51:49;;;;;;;12.43;3.30;;;;;;;17.71;nan;98045.66;5038651;28;20053;-77
2023/04/11 12:54:33;;;;;;;8.65;2.80;;;;;;;17.19;nan;98036.81;5040093;28;20048;-77
2023/04/11 12:57:16;;;;;;;7.88;3.05;;;;;;;17.15;nan;98028.63;5041132;28;20067;-78
2023/04/11 13:00:05;;;;;;;8.10;2.80;;;;;;;17.47;nan;98038.19;5033949;28;20059;-77
2023/04/11 13:02:50;;;;;;;9.60;3.53;;;;;;;17.78;nan;98024.94;5040981;28;20394;-78
2023/04/11 13:05:35;;;;;;;6.47;3.47;;;;;;;17.68;nan;98027.56;5039450;28;20510;-78
2023/04/11 13:08:19;;;;;;;9.63;3.88;;;;;;;17.33;nan;98027.31;5040937;28;20036;-77
2023/04/11 13:11:04;;;;;;;8.48;2.95;;;;;;;17.47;nan;98019.63;5044363;28;20040;-78
2023/04/11 13:13:49;;;;;;;8.90;3.38;;;;;;;18.01;nan;98016.69;5039752;28;20051;-77
2023/04/11 13:16:33;;;;;;;6.43;3.10;;;;;;;18.41;nan;97994.53;5039302;28;20126;-77
2023/04/11 13:19:17;;;;;;;6.45;3.30;;;;;;;18.13;nan;97988.00;5038344;28;20047;-77